TSO554 UUWW-UWKD
Flight info
| Callsign | TSO554 |
|---|---|
| Flight time | 1h 13m |
| Altitude | 31000 |
| Route | KOGOM3D KOGOM L94 EKPIR M864 INKEB L94 UNORO T788 KOROM KOROM1T |
| Aircraft | B737/M-SDE2E3FGHIRWXY/LB1 |
Departure
| Time | 2026-04-28 14:31 |
|---|---|
| Airport | Vnukovo International Airport (UUWW) |
Arrival
| Time | 2026-04-28 15:44 |
|---|---|
| Airport | Kazan International Airport (UWKD) |
| Time | Latitude | Longitude | Altitude | Speed | Heading |
|---|---|---|---|---|---|
| 2026-04-28 13:57 | 55.60258 | 37.27959 | 694 ft | 0 kts | 92° |
| 2026-04-28 14:13 | 55.60258 | 37.27937 | 694 ft | 2 kts | 92° |
| 2026-04-28 14:13 | 55.60259 | 37.27910 | 694 ft | 2 kts | 92° |
| 2026-04-28 14:14 | 55.60260 | 37.27884 | 694 ft | 2 kts | 92° |
| 2026-04-28 14:14 | 55.60261 | 37.27858 | 694 ft | 1 kts | 91° |
| 2026-04-28 14:14 | 55.60257 | 37.27841 | 694 ft | 1 kts | 32° |
| 2026-04-28 14:14 | 55.60244 | 37.27832 | 694 ft | 1 kts | 31° |
| 2026-04-28 14:15 | 55.60236 | 37.27823 | 694 ft | 2 kts | 32° |
| 2026-04-28 14:15 | 55.60222 | 37.27815 | 694 ft | 2 kts | 9° |
| 2026-04-28 14:15 | 55.60214 | 37.27813 | 694 ft | 1 kts | 359° |
| 2026-04-28 14:15 | 55.60210 | 37.27813 | 694 ft | 0 kts | 1° |
| 2026-04-28 14:17 | 55.60211 | 37.27813 | 694 ft | 0 kts | 1° |
| 2026-04-28 14:19 | 55.60250 | 37.27811 | 694 ft | 7 kts | 338° |
| 2026-04-28 14:19 | 55.60265 | 37.27788 | 694 ft | 0 kts | 311° |
| 2026-04-28 14:19 | 55.60278 | 37.27738 | 694 ft | 8 kts | 281° |
| 2026-04-28 14:19 | 55.60268 | 37.27644 | 694 ft | 7 kts | 221° |
| 2026-04-28 14:20 | 55.60222 | 37.27632 | 694 ft | 7 kts | 175° |
| 2026-04-28 14:20 | 55.60139 | 37.27642 | 694 ft | 14 kts | 177° |
| 2026-04-28 14:20 | 55.60052 | 37.27691 | 694 ft | 12 kts | 138° |
| 2026-04-28 14:20 | 55.59992 | 37.27790 | 694 ft | 12 kts | 136° |
| 2026-04-28 14:21 | 55.59938 | 37.27919 | 694 ft | 12 kts | 112° |
| 2026-04-28 14:21 | 55.59914 | 37.28054 | 694 ft | 10 kts | 99° |
| 2026-04-28 14:21 | 55.59909 | 37.28220 | 694 ft | 15 kts | 89° |
| 2026-04-28 14:21 | 55.59880 | 37.28362 | 694 ft | 10 kts | 132° |
| 2026-04-28 14:22 | 55.59826 | 37.28361 | 694 ft | 7 kts | 216° |
| 2026-04-28 14:22 | 55.59788 | 37.28307 | 694 ft | 6 kts | 218° |
| 2026-04-28 14:22 | 55.59769 | 37.28281 | 694 ft | 0 kts | 218° |
| 2026-04-28 14:28 | 55.59763 | 37.28273 | 694 ft | 6 kts | 218° |
| 2026-04-28 14:29 | 55.59660 | 37.28131 | 694 ft | 25 kts | 219° |
| 2026-04-28 14:29 | 55.59559 | 37.27932 | 694 ft | 12 kts | 248° |
| 2026-04-28 14:29 | 55.59554 | 37.27910 | 694 ft | 0 kts | 248° |
| 2026-04-28 14:30 | 55.59540 | 37.27848 | 694 ft | 31 kts | 248° |
| 2026-04-28 14:30 | 55.59352 | 37.27010 | 694 ft | 112 kts | 248° |
| 2026-04-28 14:30 | 55.58997 | 37.25474 | 1007 ft | 148 kts | 250° |
| 2026-04-28 14:31 | 55.58596 | 37.23695 | 1630 ft | 170 kts | 250° |
| 2026-04-28 14:31 | 55.58062 | 37.21675 | 2277 ft | 195 kts | 243° |
| 2026-04-28 14:31 | 55.57201 | 37.19762 | 3113 ft | 211 kts | 226° |
| 2026-04-28 14:31 | 55.56195 | 37.17815 | 4104 ft | 218 kts | 235° |
| 2026-04-28 14:32 | 55.55305 | 37.15659 | 5153 ft | 222 kts | 241° |
| 2026-04-28 14:32 | 55.54810 | 37.13142 | 6165 ft | 223 kts | 267° |
| 2026-04-28 14:32 | 55.54823 | 37.10391 | 6979 ft | 230 kts | 271° |
| 2026-04-28 14:32 | 55.54976 | 37.07573 | 6998 ft | 230 kts | 286° |
| 2026-04-28 14:33 | 55.55736 | 37.05156 | 6790 ft | 225 kts | 311° |
| 2026-04-28 14:33 | 55.56942 | 37.03410 | 6809 ft | 231 kts | 328° |
| 2026-04-28 14:33 | 55.58493 | 37.02612 | 6804 ft | 243 kts | 354° |
| 2026-04-28 14:33 | 55.60223 | 37.02745 | 6801 ft | 248 kts | 5° |
| 2026-04-28 14:34 | 55.63217 | 37.05654 | 6806 ft | 259 kts | 50° |
| 2026-04-28 14:34 | 55.64093 | 37.08582 | 6800 ft | 279 kts | 72° |
| 2026-04-28 14:34 | 55.64292 | 37.10882 | 6803 ft | 283 kts | 87° |
| 2026-04-28 14:35 | 55.64268 | 37.15523 | 6800 ft | 284 kts | 89° |
| 2026-04-28 14:35 | 55.64253 | 37.19054 | 6801 ft | 284 kts | 92° |
| 2026-04-28 14:35 | 55.63834 | 37.22500 | 6955 ft | 304 kts | 108° |
| 2026-04-28 14:35 | 55.63158 | 37.26063 | 7813 ft | 303 kts | 107° |
| 2026-04-28 14:36 | 55.62524 | 37.29568 | 7844 ft | 296 kts | 107° |
| 2026-04-28 14:36 | 55.61909 | 37.32959 | 7799 ft | 286 kts | 107° |
| 2026-04-28 14:36 | 55.61298 | 37.36304 | 7806 ft | 288 kts | 107° |
| 2026-04-28 14:36 | 55.60680 | 37.39684 | 7804 ft | 289 kts | 107° |
| 2026-04-28 14:37 | 55.60054 | 37.43099 | 7804 ft | 289 kts | 107° |
| 2026-04-28 14:37 | 55.59429 | 37.46507 | 7805 ft | 289 kts | 107° |
| 2026-04-28 14:37 | 55.58817 | 37.49865 | 7804 ft | 289 kts | 107° |
| 2026-04-28 14:37 | 55.58194 | 37.53245 | 7803 ft | 289 kts | 107° |
| 2026-04-28 14:38 | 55.57571 | 37.56612 | 7804 ft | 289 kts | 107° |
| 2026-04-28 14:38 | 55.57053 | 37.60013 | 7803 ft | 289 kts | 95° |
| 2026-04-28 14:38 | 55.57329 | 37.63520 | 7898 ft | 300 kts | 62° |
| 2026-04-28 14:38 | 55.58485 | 37.66608 | 8764 ft | 299 kts | 52° |
| 2026-04-28 14:39 | 55.59549 | 37.69720 | 8858 ft | 295 kts | 60° |
| 2026-04-28 14:39 | 55.60488 | 37.72849 | 8797 ft | 285 kts | 58° |
| 2026-04-28 14:39 | 55.61458 | 37.75881 | 8807 ft | 285 kts | 58° |
| 2026-04-28 14:39 | 55.62450 | 37.78930 | 8803 ft | 286 kts | 57° |
| 2026-04-28 14:40 | 55.63432 | 37.81971 | 8828 ft | 291 kts | 59° |
| 2026-04-28 14:40 | 55.63732 | 37.83067 | 8915 ft | 304 kts | 65° |
| 2026-04-28 14:40 | 55.64872 | 37.89003 | 10736 ft | 310 kts | 67° |
| 2026-04-28 14:40 | 55.65669 | 37.92740 | 11229 ft | 335 kts | 67° |
| 2026-04-28 14:41 | 55.66476 | 37.96669 | 12034 ft | 349 kts | 68° |
| 2026-04-28 14:41 | 55.67305 | 38.00777 | 13009 ft | 356 kts | 68° |
| 2026-04-28 14:41 | 55.68139 | 38.04917 | 13997 ft | 363 kts | 68° |
| 2026-04-28 14:41 | 55.68974 | 38.09077 | 14965 ft | 368 kts | 68° |
| 2026-04-28 14:42 | 55.69836 | 38.13389 | 15931 ft | 373 kts | 68° |
| 2026-04-28 14:42 | 55.70696 | 38.17699 | 16859 ft | 379 kts | 68° |
| 2026-04-28 14:42 | 55.71585 | 38.22164 | 17774 ft | 384 kts | 68° |
| 2026-04-28 14:42 | 55.72471 | 38.26631 | 18656 ft | 389 kts | 68° |
| 2026-04-28 14:43 | 55.73366 | 38.31148 | 19501 ft | 394 kts | 68° |
| 2026-04-28 14:43 | 55.74283 | 38.35781 | 20338 ft | 398 kts | 67° |
| 2026-04-28 14:43 | 55.75203 | 38.40444 | 21145 ft | 403 kts | 67° |
| 2026-04-28 14:43 | 55.76124 | 38.45126 | 21909 ft | 408 kts | 67° |
| 2026-04-28 14:44 | 55.77067 | 38.49934 | 22669 ft | 412 kts | 67° |
| 2026-04-28 14:44 | 55.78006 | 38.54733 | 23379 ft | 417 kts | 67° |
| 2026-04-28 14:44 | 55.78964 | 38.59643 | 24083 ft | 421 kts | 67° |
| 2026-04-28 14:44 | 55.79915 | 38.64535 | 24764 ft | 425 kts | 67° |
| 2026-04-28 14:45 | 55.80884 | 38.69532 | 25389 ft | 430 kts | 68° |
| 2026-04-28 14:45 | 55.81856 | 38.74556 | 26073 ft | 433 kts | 68° |
| 2026-04-28 14:45 | 55.82843 | 38.79662 | 26697 ft | 437 kts | 68° |
| 2026-04-28 14:45 | 55.83495 | 38.83047 | 27093 ft | 439 kts | 68° |
| 2026-04-28 14:46 | 55.84818 | 38.89934 | 27887 ft | 444 kts | 68° |
| 2026-04-28 14:46 | 55.85811 | 38.95116 | 28488 ft | 446 kts | 68° |
| 2026-04-28 14:46 | 55.86813 | 39.00368 | 29149 ft | 446 kts | 68° |
| 2026-04-28 14:46 | 55.87801 | 39.05555 | 29927 ft | 443 kts | 67° |
| 2026-04-28 14:47 | 55.88792 | 39.10753 | 30596 ft | 442 kts | 67° |
| 2026-04-28 14:47 | 55.89785 | 39.15957 | 30806 ft | 444 kts | 67° |
| 2026-04-28 14:47 | 55.90756 | 39.21077 | 30775 ft | 441 kts | 67° |
| 2026-04-28 14:48 | 55.92690 | 39.31417 | 30777 ft | 436 kts | 67° |
| 2026-04-28 14:48 | 55.94614 | 39.41676 | 30777 ft | 437 kts | 67° |
| 2026-04-28 14:49 | 55.96521 | 39.51921 | 30776 ft | 438 kts | 67° |
| 2026-04-28 14:49 | 55.98448 | 39.62261 | 30771 ft | 437 kts | 66° |
| 2026-04-28 14:50 | 56.00945 | 39.72065 | 30675 ft | 433 kts | 58° |
| 2026-04-28 14:50 | 56.02115 | 39.77025 | 30615 ft | 439 kts | 71° |
| 2026-04-28 14:50 | 56.02557 | 39.82451 | 30575 ft | 446 kts | 82° |
| 2026-04-28 14:51 | 56.02832 | 39.93560 | 30534 ft | 446 kts | 83° |
| 2026-04-28 14:51 | 56.03131 | 40.04576 | 30533 ft | 447 kts | 84° |
| 2026-04-28 14:52 | 56.03344 | 40.15696 | 30534 ft | 446 kts | 84° |
| 2026-04-28 14:52 | 56.03516 | 40.26626 | 30533 ft | 446 kts | 84° |
| 2026-04-28 14:53 | 56.03666 | 40.37859 | 30534 ft | 446 kts | 84° |
| 2026-04-28 14:53 | 56.03791 | 40.48906 | 30533 ft | 447 kts | 84° |
| 2026-04-28 14:54 | 56.03902 | 40.60051 | 30533 ft | 447 kts | 84° |
| 2026-04-28 14:54 | 56.03996 | 40.71115 | 30534 ft | 446 kts | 85° |
| 2026-04-28 14:55 | 56.04078 | 40.82223 | 30533 ft | 447 kts | 85° |
| 2026-04-28 14:55 | 56.04158 | 40.93314 | 30533 ft | 446 kts | 85° |
| 2026-04-28 14:56 | 56.04237 | 41.04387 | 30533 ft | 445 kts | 85° |
| 2026-04-28 14:56 | 56.04292 | 41.15466 | 30562 ft | 445 kts | 85° |
| 2026-04-28 14:57 | 56.04348 | 41.26618 | 30560 ft | 445 kts | 85° |
| 2026-04-28 14:57 | 56.04379 | 41.37709 | 30560 ft | 446 kts | 85° |
| 2026-04-28 14:58 | 56.04396 | 41.48709 | 30560 ft | 445 kts | 85° |
| 2026-04-28 14:58 | 56.04395 | 41.59784 | 30580 ft | 445 kts | 85° |
| 2026-04-28 14:59 | 56.04392 | 41.70924 | 30619 ft | 446 kts | 86° |
| 2026-04-28 14:59 | 56.04398 | 41.82001 | 30641 ft | 446 kts | 85° |
| 2026-04-28 15:00 | 56.04375 | 41.93082 | 30641 ft | 446 kts | 86° |
| 2026-04-28 15:00 | 56.04362 | 42.04098 | 30641 ft | 445 kts | 86° |
| 2026-04-28 15:01 | 56.04319 | 42.15151 | 30642 ft | 446 kts | 86° |
| 2026-04-28 15:01 | 56.04269 | 42.26286 | 30641 ft | 446 kts | 86° |
| 2026-04-28 15:02 | 56.04226 | 42.37364 | 30642 ft | 444 kts | 86° |
| 2026-04-28 15:02 | 56.04158 | 42.48361 | 30641 ft | 446 kts | 86° |
| 2026-04-28 15:03 | 56.04068 | 42.59439 | 30641 ft | 446 kts | 86° |
| 2026-04-28 15:03 | 56.03931 | 42.70539 | 30641 ft | 446 kts | 87° |
| 2026-04-28 15:04 | 56.03809 | 42.81627 | 30641 ft | 446 kts | 87° |
| 2026-04-28 15:04 | 56.03659 | 42.92759 | 30641 ft | 446 kts | 86° |
| 2026-04-28 15:05 | 56.03523 | 43.03830 | 30642 ft | 445 kts | 87° |
| 2026-04-28 15:05 | 56.03349 | 43.14880 | 30641 ft | 441 kts | 87° |
| 2026-04-28 15:06 | 56.03139 | 43.25789 | 30642 ft | 442 kts | 88° |
| 2026-04-28 15:06 | 56.03087 | 43.36673 | 30642 ft | 435 kts | 79° |
| 2026-04-28 15:07 | 56.03856 | 43.47412 | 30641 ft | 436 kts | 78° |
| 2026-04-28 15:07 | 56.04548 | 43.58177 | 30641 ft | 436 kts | 78° |
| 2026-04-28 15:08 | 56.05255 | 43.68976 | 30642 ft | 435 kts | 79° |
| 2026-04-28 15:08 | 56.05973 | 43.79740 | 30641 ft | 436 kts | 79° |
| 2026-04-28 15:09 | 56.06662 | 43.90484 | 30641 ft | 437 kts | 79° |
| 2026-04-28 15:09 | 56.07343 | 44.01267 | 30641 ft | 435 kts | 79° |
| 2026-04-28 15:10 | 56.08035 | 44.12030 | 30641 ft | 436 kts | 79° |
| 2026-04-28 15:10 | 56.08713 | 44.22802 | 30641 ft | 435 kts | 79° |
| 2026-04-28 15:11 | 56.09359 | 44.33548 | 30642 ft | 435 kts | 79° |
| 2026-04-28 15:11 | 56.10008 | 44.44314 | 30642 ft | 437 kts | 79° |
| 2026-04-28 15:12 | 56.10657 | 44.55196 | 30642 ft | 436 kts | 79° |
| 2026-04-28 15:12 | 56.11189 | 44.65958 | 30641 ft | 437 kts | 84° |
| 2026-04-28 15:13 | 56.11005 | 44.76878 | 30641 ft | 441 kts | 88° |
| 2026-04-28 15:13 | 56.10789 | 44.87818 | 30642 ft | 440 kts | 87° |
| 2026-04-28 15:14 | 56.10608 | 44.98758 | 30642 ft | 439 kts | 88° |
| 2026-04-28 15:14 | 56.10355 | 45.09628 | 30642 ft | 435 kts | 88° |
| 2026-04-28 15:15 | 56.10099 | 45.20488 | 30642 ft | 434 kts | 88° |
| 2026-04-28 15:15 | 56.09846 | 45.31285 | 30642 ft | 435 kts | 88° |
| 2026-04-28 15:16 | 56.09580 | 45.42099 | 30657 ft | 435 kts | 88° |
| 2026-04-28 15:16 | 56.09303 | 45.52935 | 30693 ft | 435 kts | 88° |
| 2026-04-28 15:17 | 56.09018 | 45.63729 | 30723 ft | 435 kts | 88° |
| 2026-04-28 15:17 | 56.08722 | 45.74589 | 30722 ft | 436 kts | 89° |
| 2026-04-28 15:18 | 56.08417 | 45.85380 | 30723 ft | 436 kts | 89° |
| 2026-04-28 15:18 | 56.08102 | 45.96222 | 30723 ft | 436 kts | 89° |
| 2026-04-28 15:19 | 56.07776 | 46.07081 | 30723 ft | 436 kts | 89° |
| 2026-04-28 15:19 | 56.07442 | 46.17916 | 30723 ft | 436 kts | 89° |
| 2026-04-28 15:20 | 56.07099 | 46.28749 | 30723 ft | 436 kts | 89° |
| 2026-04-28 15:20 | 56.06744 | 46.39614 | 30723 ft | 436 kts | 89° |
| 2026-04-28 15:21 | 56.06105 | 46.50412 | 30723 ft | 439 kts | 96° |
| 2026-04-28 15:21 | 56.04293 | 46.60931 | 30723 ft | 445 kts | 107° |
| 2026-04-28 15:22 | 56.02090 | 46.71292 | 30722 ft | 445 kts | 107° |
| 2026-04-28 15:22 | 55.99931 | 46.81584 | 30722 ft | 445 kts | 107° |
| 2026-04-28 15:23 | 55.97715 | 46.91929 | 30691 ft | 442 kts | 108° |
| 2026-04-28 15:23 | 55.96635 | 46.96938 | 30347 ft | 434 kts | 108° |
| 2026-04-28 15:23 | 55.95547 | 47.01967 | 29852 ft | 429 kts | 108° |
| 2026-04-28 15:23 | 55.94467 | 47.06947 | 29251 ft | 427 kts | 109° |
| 2026-04-28 15:24 | 55.93400 | 47.11848 | 28182 ft | 426 kts | 109° |
| 2026-04-28 15:24 | 55.92335 | 47.16731 | 27352 ft | 419 kts | 109° |
| 2026-04-28 15:24 | 55.91292 | 47.21493 | 26331 ft | 416 kts | 109° |
| 2026-04-28 15:24 | 55.90239 | 47.26295 | 25225 ft | 413 kts | 109° |
| 2026-04-28 15:25 | 55.89196 | 47.31036 | 24208 ft | 408 kts | 109° |
| 2026-04-28 15:25 | 55.88161 | 47.35729 | 23209 ft | 402 kts | 109° |
| 2026-04-28 15:25 | 55.87153 | 47.40291 | 22239 ft | 396 kts | 109° |
| 2026-04-28 15:25 | 55.86150 | 47.44815 | 21275 ft | 390 kts | 109° |
| 2026-04-28 15:26 | 55.85167 | 47.49244 | 20348 ft | 383 kts | 109° |
| 2026-04-28 15:26 | 55.84201 | 47.53586 | 19691 ft | 370 kts | 109° |
| 2026-04-28 15:26 | 55.83274 | 47.57743 | 19103 ft | 356 kts | 109° |
| 2026-04-28 15:26 | 55.82366 | 47.61805 | 18541 ft | 351 kts | 109° |
| 2026-04-28 15:27 | 55.81460 | 47.65863 | 17981 ft | 365 kts | 110° |
| 2026-04-28 15:27 | 55.80509 | 47.70106 | 17373 ft | 362 kts | 110° |
| 2026-04-28 15:27 | 55.79592 | 47.74180 | 16801 ft | 348 kts | 110° |
| 2026-04-28 15:27 | 55.78716 | 47.78067 | 16253 ft | 337 kts | 110° |
| 2026-04-28 15:28 | 55.77814 | 47.82075 | 15688 ft | 350 kts | 110° |
| 2026-04-28 15:28 | 55.76909 | 47.86087 | 15096 ft | 350 kts | 111° |
| 2026-04-28 15:28 | 55.76012 | 47.90046 | 14528 ft | 336 kts | 111° |
| 2026-04-28 15:28 | 55.75160 | 47.93805 | 13988 ft | 325 kts | 111° |
| 2026-04-28 15:29 | 55.74299 | 47.97598 | 13455 ft | 339 kts | 111° |
| 2026-04-28 15:29 | 55.73415 | 48.01485 | 12883 ft | 338 kts | 111° |
| 2026-04-28 15:29 | 55.72553 | 48.05262 | 12333 ft | 325 kts | 111° |
| 2026-04-28 15:29 | 55.71728 | 48.08876 | 11810 ft | 315 kts | 111° |
| 2026-04-28 15:30 | 55.70890 | 48.12543 | 11281 ft | 330 kts | 111° |
| 2026-04-28 15:30 | 55.70021 | 48.16337 | 10723 ft | 327 kts | 111° |
| 2026-04-28 15:30 | 55.69188 | 48.19957 | 10371 ft | 308 kts | 111° |
| 2026-04-28 15:30 | 55.68401 | 48.23372 | 10188 ft | 286 kts | 110° |
| 2026-04-28 15:31 | 55.67672 | 48.26551 | 10085 ft | 285 kts | 110° |
| 2026-04-28 15:31 | 55.66914 | 48.29839 | 9943 ft | 280 kts | 111° |
| 2026-04-28 15:31 | 55.66193 | 48.32951 | 9791 ft | 264 kts | 110° |
| 2026-04-28 15:31 | 55.65511 | 48.35900 | 9615 ft | 257 kts | 110° |
| 2026-04-28 15:32 | 55.64833 | 48.38828 | 9333 ft | 254 kts | 110° |
| 2026-04-28 15:32 | 55.64387 | 48.40752 | 9126 ft | 253 kts | 110° |
| 2026-04-28 15:32 | 55.63503 | 48.44558 | 8711 ft | 252 kts | 111° |
| 2026-04-28 15:32 | 55.62840 | 48.47427 | 8402 ft | 251 kts | 109° |
| 2026-04-28 15:33 | 55.62447 | 48.50410 | 8080 ft | 249 kts | 98° |
| 2026-04-28 15:33 | 55.61947 | 48.53346 | 7757 ft | 250 kts | 112° |
| 2026-04-28 15:33 | 55.61219 | 48.56151 | 7450 ft | 249 kts | 113° |
| 2026-04-28 15:33 | 55.60513 | 48.58945 | 7140 ft | 249 kts | 112° |
| 2026-04-28 15:34 | 55.59820 | 48.61694 | 6839 ft | 248 kts | 113° |
| 2026-04-28 15:34 | 55.59108 | 48.64548 | 6527 ft | 247 kts | 111° |
| 2026-04-28 15:34 | 55.58780 | 48.67491 | 6180 ft | 246 kts | 83° |
| 2026-04-28 15:34 | 55.59348 | 48.70277 | 5872 ft | 241 kts | 60° |
| 2026-04-28 15:35 | 55.59980 | 48.73029 | 5540 ft | 243 kts | 80° |
| 2026-04-28 15:35 | 55.59161 | 48.78768 | 4924 ft | 242 kts | 114° |
| 2026-04-28 15:35 | 55.58500 | 48.81519 | 4626 ft | 242 kts | 113° |
| 2026-04-28 15:36 | 55.57883 | 48.84285 | 4327 ft | 241 kts | 105° |
| 2026-04-28 15:36 | 55.57892 | 48.87186 | 3996 ft | 240 kts | 69° |
| 2026-04-28 15:36 | 55.58882 | 48.89520 | 3974 ft | 236 kts | 38° |
| 2026-04-28 15:36 | 55.60151 | 48.91139 | 4000 ft | 216 kts | 30° |
| 2026-04-28 15:37 | 55.61406 | 48.92324 | 3981 ft | 194 kts | 21° |
| 2026-04-28 15:37 | 55.62616 | 48.93139 | 3917 ft | 175 kts | 16° |
| 2026-04-28 15:37 | 55.63738 | 48.93702 | 3837 ft | 161 kts | 1° |
| 2026-04-28 15:37 | 55.64489 | 48.93694 | 3795 ft | 162 kts | 355° |
| 2026-04-28 15:38 | 55.65953 | 48.94317 | 3594 ft | 167 kts | 24° |
| 2026-04-28 15:38 | 55.66951 | 48.95377 | 3429 ft | 167 kts | 30° |
| 2026-04-28 15:38 | 55.67905 | 48.96496 | 3241 ft | 157 kts | 31° |
| 2026-04-28 15:38 | 55.68806 | 48.97572 | 3074 ft | 157 kts | 31° |
| 2026-04-28 15:39 | 55.69710 | 48.98663 | 2913 ft | 157 kts | 32° |
| 2026-04-28 15:39 | 55.70510 | 48.99978 | 2730 ft | 159 kts | 62° |
| 2026-04-28 15:39 | 55.70582 | 49.01831 | 2698 ft | 155 kts | 114° |
| 2026-04-28 15:39 | 55.70021 | 49.03392 | 2698 ft | 152 kts | 128° |
| 2026-04-28 15:40 | 55.69462 | 49.04923 | 2692 ft | 146 kts | 126° |
| 2026-04-28 15:40 | 55.68897 | 49.06428 | 2692 ft | 145 kts | 128° |
| 2026-04-28 15:40 | 55.68328 | 49.07918 | 2660 ft | 146 kts | 128° |
| 2026-04-28 15:40 | 55.67757 | 49.09408 | 2451 ft | 145 kts | 128° |
| 2026-04-28 15:41 | 55.67198 | 49.10861 | 2272 ft | 143 kts | 128° |
| 2026-04-28 15:41 | 55.66636 | 49.12321 | 2073 ft | 142 kts | 128° |
| 2026-04-28 15:41 | 55.66079 | 49.13767 | 1881 ft | 141 kts | 128° |
| 2026-04-28 15:41 | 55.65524 | 49.15208 | 1689 ft | 141 kts | 128° |
| 2026-04-28 15:42 | 55.64977 | 49.16626 | 1500 ft | 140 kts | 128° |
| 2026-04-28 15:42 | 55.64428 | 49.18049 | 1310 ft | 139 kts | 129° |
| 2026-04-28 15:42 | 55.63879 | 49.19470 | 1121 ft | 138 kts | 129° |
| 2026-04-28 15:42 | 55.63338 | 49.20873 | 936 ft | 137 kts | 129° |
| 2026-04-28 15:43 | 55.62797 | 49.22271 | 751 ft | 136 kts | 129° |
| 2026-04-28 15:43 | 55.62264 | 49.23644 | 579 ft | 136 kts | 129° |
| 2026-04-28 15:43 | 55.61736 | 49.25015 | 401 ft | 135 kts | 128° |
| 2026-04-28 15:43 | 55.61212 | 49.26376 | 362 ft | 132 kts | 130° |
| 2026-04-28 15:44 | 55.60776 | 49.27476 | 380 ft | 73 kts | 124° |
| 2026-04-28 15:44 | 55.60573 | 49.28013 | 390 ft | 44 kts | 126° |
| 2026-04-28 15:44 | 55.60430 | 49.28381 | 394 ft | 24 kts | 124° |
| 2026-04-28 15:44 | 55.60403 | 49.28587 | 396 ft | 16 kts | 43° |
| 2026-04-28 15:45 | 55.60476 | 49.28676 | 396 ft | 2 kts | 37° |
| 2026-04-28 15:45 | 55.60487 | 49.28690 | 397 ft | 7 kts | 36° |
| 2026-04-28 15:46 | 55.60566 | 49.28787 | 404 ft | 18 kts | 41° |
| 2026-04-28 15:46 | 55.60578 | 49.28998 | 401 ft | 16 kts | 94° |
| 2026-04-28 15:46 | 55.60611 | 49.29175 | 402 ft | 16 kts | 43° |
| 2026-04-28 15:46 | 55.60691 | 49.29276 | 404 ft | 13 kts | 34° |
| 2026-04-28 15:47 | 55.60765 | 49.29367 | 414 ft | 12 kts | 36° |
| 2026-04-28 15:47 | 55.60809 | 49.29489 | 414 ft | 11 kts | 125° |
| 2026-04-28 15:47 | 55.60773 | 49.29587 | 418 ft | 8 kts | 123° |
| 2026-04-28 15:47 | 55.60739 | 49.29671 | 422 ft | 8 kts | 126° |
| 2026-04-28 15:48 | 55.60720 | 49.29767 | 425 ft | 8 kts | 69° |
| 2026-04-28 15:48 | 55.60762 | 49.29825 | 423 ft | 3 kts | 32° |
| 2026-04-28 15:48 | 55.60763 | 49.29826 | 423 ft | 0 kts | 32° |